Airfield :
LOGIN :

Register | Disclaimer

   EN    FR    IT 

 










Legend :    VFR   Marginal VFR   IFR   Intensive IFR   Very Intensive IFR
Visi :
Ceiling :
>= 8 km
>= 3000ft
5 to 8 km
1000 to 3000 ft
1500m to 5 km
500 to 1000 ft
800 to 1500m
200 to 500 ft
< 800m
< 200 ft
Symbols :   Thunderstorms  Fog  Heavy snow  Heavy precipitations  Wind > 20 kt
SIGMETs :     Misc.  Thunderstorms  Icing  Turbulence  Mountain Waves  Volcanic Ashes






- Airport Elevation : 1416 ft
- IATA code : ZRH


LSZH - Zurich

CURRENT METAR :
  • 241150Z 22009KT 190V250 9999 SCT038 09/M00 Q1004 NOSIG

EXPIRED METARs :
  • 241120Z 27009KT 220V300 9999 SCT038 08/M01 Q1005 NOSIG
  • 241050Z 24010KT 220V280 9999 SCT038 08/M01 Q1004 NOSIG
  • 241020Z 22009KT 170V270 9999 FEW034 08/00 Q1004 NOSIG
  • 240950Z 21007KT 170V260 9999 FEW030 08/M00 Q1004 NOSIG
  • 240920Z 19005KT 160V230 9999 FEW025 07/01 Q1004 NOSIG
  • 240850Z 18007KT 9999 FEW026 06/01 Q1004 NOSIG
  • 240820Z 19007KT 9999 FEW028 06/01 Q1004 NOSIG
  • 240750Z 17007KT 9999 FEW028 SCT036 BKN075 05/01 Q1004 NOSIG
  • 240720Z 17005KT 9999 VCSH FEW022 SCT035 BKN065 04/01 Q1003 TEMPO SHRA

TAF TAF LSZH
Valid from the 24 at 12:00 until the 25 at 18:00 UTC


241125Z 2412/2518 24010KT 9999 SCT035 TX09/2415Z TNM01/2506Z TX10/2514Z
BECMG 2414/2417 15004KT
PROB30
TEMPO 2417/2422 SHRA FEW030TCU
BECMG 2503/2506 CAVOK
ATIS : +41 43 816 2295 (DEP) +41 43 816 2294 (ARR)



MET'MAP, your aeronautical weather chart ! - Copyright ORBIFLY December 2007 - Disclaimer

ORBIFLY MET'MAP TEAM :

Programming & Development : Alexandra Zaïnal
Original concept : Baudouin d'Aumeries
Technical & hardware support : Manuel Goepfert
Assistance : Marc-Olivier Méhu




SOURCES & CREDITS :

   NOAA